< < Back
Terminal Aerodrome Forecast


Current Version              Previous Versions:   1  2  3  4  5  6  7  8  9  

Terminal Aerodrome Forecast

597
FTUS42 KGSP 200900 AAD
TAFAVL
TAF AMD
KAVL 200944Z 2010/2106 VRB03KT P6SM FEW017 OVC035
      TEMPO 2010/2013 5SM BR BKN017
     FM201400 00000KT P6SM SCT017
     FM201500 13003KT P6SM SCT250
     FM201800 14005KT P6SM FEW250
     FM210000 33003KT P6SM FEW250=



Latest METAR

247
SAUS70 KWBC 201000 RRF
MTRAVL
METAR KAVL 200954Z AUTO 00000KT 10SM SCT032 BKN047 OVC075 17/15 A3025
RMK AO2 SLP222 T01670150


USA.gov is the U.S. government's official web portal to all federal, state and local government web resources and services.